createdAt,value
2022-12-22T00:01:22.403Z,55.33
2022-12-22T00:04:08.330Z,52.33
2022-12-22T00:06:53.977Z,54.03
2022-12-22T00:09:39.841Z,57.40
2022-12-22T00:12:29.260Z,54.50
2022-12-22T00:15:14.889Z,50.20
2022-12-22T00:18:00.414Z,63.53
2022-12-22T00:20:45.860Z,43.90
2022-12-22T00:23:31.637Z,57.20
2022-12-22T00:26:17.779Z,51.27
2022-12-22T00:29:03.327Z,54.27
2022-12-22T00:31:49.091Z,49.60
2022-12-22T00:34:37.612Z,52.57
2022-12-22T00:37:23.116Z,56.00
2022-12-22T00:40:09.278Z,48.97
2022-12-22T00:42:55.057Z,62.30
2022-12-22T00:45:40.854Z,49.60
2022-12-22T00:48:49.388Z,51.23
2022-12-22T00:51:36.560Z,55.83
2022-12-22T00:54:22.316Z,49.07
2022-12-22T00:57:07.944Z,46.77
2022-12-22T00:59:53.449Z,46.27
2022-12-22T01:02:38.955Z,41.83
2022-12-22T01:05:24.908Z,51.63
2022-12-22T01:08:10.392Z,47.10
2022-12-22T01:10:56.235Z,46.30
2022-12-22T01:13:41.724Z,51.23
2022-12-22T01:16:31.531Z,54.03
2022-12-22T01:19:17.297Z,52.80
2022-12-22T01:22:02.718Z,58.33
2022-12-22T01:24:48.772Z,54.47
2022-12-22T01:27:34.745Z,47.53
2022-12-22T01:30:20.576Z,50.27
2022-12-22T01:33:06.300Z,59.10
2022-12-22T01:35:53.607Z,40.63
2022-12-22T01:38:39.168Z,43.10
2022-12-22T01:41:28.867Z,48.53
2022-12-22T01:44:14.185Z,55.47
2022-12-22T01:47:03.588Z,55.20
2022-12-22T01:49:56.657Z,56.37
2022-12-22T01:52:45.843Z,49.80
2022-12-22T01:55:35.639Z,57.33
2022-12-22T01:58:21.108Z,47.80
2022-12-22T02:01:06.681Z,49.23
2022-12-22T02:03:52.076Z,48.17
2022-12-22T02:07:00.433Z,49.23
2022-12-22T02:10:15.246Z,48.60
2022-12-22T02:13:20.407Z,52.97
2022-12-22T02:16:15.855Z,46.07
2022-12-22T02:19:09.568Z,52.90
2022-12-22T02:22:34.084Z,47.70
2022-12-22T02:25:32.491Z,56.90
2022-12-22T02:28:20.145Z,46.20
2022-12-22T02:31:08.067Z,43.63
2022-12-22T02:33:53.832Z,47.17
2022-12-22T02:36:50.460Z,50.43
2022-12-22T02:39:47.224Z,45.90
2022-12-22T02:42:45.929Z,48.60
2022-12-22T02:45:59.385Z,51.30
2022-12-22T02:49:31.146Z,43.73
2022-12-22T02:52:30.014Z,44.33
2022-12-22T02:55:19.023Z,46.67
2022-12-22T02:58:04.891Z,48.83
2022-12-22T03:00:50.569Z,44.30
2022-12-22T03:03:36.505Z,44.27
2022-12-22T03:06:22.171Z,44.80
2022-12-22T03:09:10.625Z,56.57
2022-12-22T03:11:55.953Z,42.73
2022-12-22T03:14:41.573Z,48.47
2022-12-22T03:17:27.119Z,47.50
2022-12-22T03:20:12.476Z,45.30
2022-12-22T03:22:58.116Z,42.73
2022-12-22T03:25:43.815Z,43.67
2022-12-22T03:28:11.541Z,47.93
2022-12-22T03:30:39.238Z,56.13
2022-12-22T03:33:06.341Z,48.70
2022-12-22T03:35:33.527Z,50.60
2022-12-22T03:38:03.778Z,46.53
2022-12-22T03:40:31.590Z,47.57
2022-12-22T03:43:17.492Z,47.37
2022-12-22T03:46:03.016Z,45.00
2022-12-22T03:48:30.149Z,50.30
2022-12-22T03:50:57.151Z,50.47
2022-12-22T03:53:24.143Z,50.60
2022-12-22T03:55:51.203Z,49.70
2022-12-22T03:58:20.330Z,49.03
2022-12-22T04:00:47.500Z,49.53
2022-12-22T04:03:14.603Z,44.37
2022-12-22T04:05:41.981Z,51.53
2022-12-22T04:08:09.194Z,51.63
2022-12-22T04:10:54.865Z,44.77
2022-12-22T04:13:21.927Z,54.70
2022-12-22T04:15:48.909Z,40.67
2022-12-22T04:18:15.954Z,45.37
2022-12-22T04:20:42.917Z,47.23
2022-12-22T04:23:09.957Z,46.73
2022-12-22T04:25:37.011Z,47.40
2022-12-22T04:28:04.133Z,48.80
2022-12-22T04:30:31.221Z,52.53
2022-12-22T04:32:58.266Z,43.73
2022-12-22T04:35:25.316Z,45.60
2022-12-22T04:37:52.313Z,52.37
2022-12-22T04:40:19.813Z,43.80
2022-12-22T04:42:46.925Z,47.07
2022-12-22T04:45:14.083Z,44.43
2022-12-22T04:47:41.100Z,43.30
2022-12-22T04:50:08.622Z,55.87
2022-12-22T04:52:35.689Z,46.93
2022-12-22T04:55:02.771Z,43.73
2022-12-22T04:57:29.810Z,49.13
2022-12-22T04:59:56.810Z,41.93
2022-12-22T05:02:24.147Z,39.70
2022-12-22T05:04:51.219Z,46.23
2022-12-22T05:07:18.301Z,45.67
2022-12-22T05:09:45.318Z,39.80
2022-12-22T05:12:30.764Z,46.10
2022-12-22T05:14:57.850Z,45.03
2022-12-22T05:17:24.909Z,44.70
2022-12-22T05:19:51.875Z,55.43
2022-12-22T05:22:18.886Z,47.90
2022-12-22T05:24:45.956Z,49.57
2022-12-22T05:27:13.057Z,48.53
2022-12-22T05:29:40.053Z,50.50
2022-12-22T05:32:07.142Z,52.80
2022-12-22T05:34:34.160Z,52.63
2022-12-22T05:37:01.235Z,58.50
2022-12-22T05:39:28.291Z,64.40
2022-12-22T05:41:55.333Z,50.60
2022-12-22T05:44:22.391Z,57.60
2022-12-22T05:46:52.900Z,55.67
2022-12-22T05:49:20.431Z,50.03
2022-12-22T05:51:51.839Z,57.43
2022-12-22T05:54:18.853Z,61.03
2022-12-22T05:56:46.075Z,57.23
2022-12-22T05:59:13.158Z,49.87
2022-12-22T06:01:40.332Z,55.63
2022-12-22T06:04:07.518Z,64.27
2022-12-22T06:06:34.630Z,53.50
2022-12-22T06:09:01.630Z,54.73
2022-12-22T06:11:28.771Z,57.80
2022-12-22T06:13:55.745Z,60.30
2022-12-22T06:16:24.040Z,64.03
2022-12-22T06:18:51.156Z,58.23
2022-12-22T06:21:18.181Z,57.47
2022-12-22T06:23:45.239Z,59.60
2022-12-22T06:26:12.179Z,52.30
2022-12-22T06:28:39.292Z,54.77
2022-12-22T06:31:06.413Z,57.63
2022-12-22T06:33:34.836Z,49.43
2022-12-22T06:36:05.624Z,53.00
2022-12-22T06:38:32.778Z,51.73
2022-12-22T06:40:59.851Z,55.33
2022-12-22T06:43:27.089Z,56.17
2022-12-22T06:45:54.220Z,54.23
2022-12-22T06:48:21.558Z,53.53
2022-12-22T06:50:48.725Z,53.63
2022-12-22T06:53:16.145Z,53.00
2022-12-22T06:55:43.456Z,53.43
2022-12-22T06:58:10.644Z,51.77
2022-12-22T07:00:37.922Z,326.23
2022-12-22T07:03:07.970Z,224.00
2022-12-22T07:05:37.940Z,131.07
2022-12-22T07:08:08.720Z,119.30
2022-12-22T07:10:54.287Z,122.70
2022-12-22T07:13:21.509Z,102.23
2022-12-22T07:15:55.589Z,121.63
2022-12-22T07:18:26.966Z,80.13
2022-12-22T07:20:55.069Z,84.87
2022-12-22T07:23:22.286Z,89.87
2022-12-22T07:25:49.290Z,80.73
2022-12-22T07:28:20.719Z,77.70
2022-12-22T07:30:50.216Z,74.27
2022-12-22T07:33:19.069Z,69.93
2022-12-22T07:35:47.006Z,68.43
2022-12-22T07:38:14.332Z,58.20
2022-12-22T07:40:42.773Z,54.80
2022-12-22T07:43:13.816Z,58.63
2022-12-22T07:45:40.953Z,53.03
2022-12-22T07:48:28.087Z,59.57
2022-12-22T07:51:01.924Z,56.87
2022-12-22T07:53:28.932Z,52.70
2022-12-22T07:55:55.949Z,54.47
2022-12-22T07:58:22.917Z,42.10
2022-12-22T08:00:50.043Z,48.40
2022-12-22T08:03:17.176Z,44.80
2022-12-22T08:05:45.615Z,45.87
2022-12-22T08:08:12.644Z,47.00
2022-12-22T08:10:42.288Z,42.83
2022-12-22T08:13:09.331Z,42.63
2022-12-22T08:15:38.093Z,43.80
2022-12-22T08:18:05.213Z,38.30
2022-12-22T08:20:32.240Z,42.30
2022-12-22T08:22:59.361Z,35.27
2022-12-22T08:25:26.432Z,40.00
2022-12-22T08:27:56.478Z,41.57
2022-12-22T08:30:23.781Z,39.47
2022-12-22T08:32:51.932Z,33.43
2022-12-22T08:35:20.146Z,35.33
2022-12-22T08:37:48.784Z,36.17
2022-12-22T08:40:25.468Z,38.80
2022-12-22T08:42:59.179Z,37.90
2022-12-22T08:45:26.404Z,35.47
2022-12-22T08:47:53.493Z,33.13
2022-12-22T08:50:20.609Z,33.67
2022-12-22T08:52:47.804Z,34.20
2022-12-22T08:55:14.948Z,36.03
2022-12-22T08:57:42.086Z,33.10
2022-12-22T09:00:13.191Z,32.23
2022-12-22T09:02:40.678Z,32.33
2022-12-22T09:05:08.166Z,32.47
2022-12-22T09:07:35.219Z,35.80
2022-12-22T09:10:02.786Z,25.80
2022-12-22T09:12:30.538Z,33.17
2022-12-22T09:14:57.598Z,25.47
2022-12-22T09:17:24.685Z,34.70
2022-12-22T09:19:51.970Z,31.57
2022-12-22T09:22:28.201Z,31.37
2022-12-22T09:24:56.444Z,31.90
2022-12-22T09:27:23.551Z,31.10
2022-12-22T09:29:50.551Z,28.80
2022-12-22T09:32:17.735Z,32.10
2022-12-22T09:34:44.743Z,33.80
2022-12-22T09:37:14.160Z,37.47
2022-12-22T09:39:41.212Z,29.90
2022-12-22T09:42:15.317Z,35.43
2022-12-22T09:44:46.073Z,36.90
2022-12-22T09:47:47.275Z,38.20
2022-12-22T09:50:17.239Z,36.90
2022-12-22T09:52:49.396Z,32.60
2022-12-22T09:55:36.725Z,24.80
2022-12-22T09:58:03.857Z,27.63
2022-12-22T10:00:30.993Z,31.17
2022-12-22T10:03:24.204Z,31.03
2022-12-22T10:06:17.478Z,38.47
2022-12-22T10:08:44.547Z,33.83
2022-12-22T10:11:17.665Z,41.33
2022-12-22T10:13:45.526Z,38.33
2022-12-22T10:16:24.823Z,22.40
2022-12-22T10:18:58.021Z,37.90
2022-12-22T10:21:26.374Z,23.47
2022-12-22T10:23:54.048Z,31.43
2022-12-22T10:26:29.589Z,38.40
2022-12-22T10:29:07.884Z,30.60
2022-12-22T10:31:37.295Z,30.83
2022-12-22T10:34:18.259Z,24.80
2022-12-22T10:36:50.933Z,30.70
2022-12-22T10:39:24.220Z,27.07
2022-12-22T10:41:55.277Z,29.73
2022-12-22T10:44:31.482Z,23.97
2022-12-22T10:47:01.768Z,34.30
2022-12-22T10:49:30.860Z,36.80
2022-12-22T10:52:13.199Z,28.83
2022-12-22T10:54:44.751Z,25.90
2022-12-22T10:57:14.708Z,33.53
2022-12-22T10:59:56.732Z,35.17
2022-12-22T11:02:38.163Z,32.73
2022-12-22T11:05:07.246Z,35.97
2022-12-22T11:07:37.452Z,28.27
2022-12-22T11:10:31.791Z,30.30
2022-12-22T11:13:35.813Z,24.10
2022-12-22T11:16:32.499Z,30.33
2022-12-22T11:19:38.385Z,23.60
2022-12-22T11:22:16.531Z,29.07
2022-12-22T11:25:18.806Z,19.47
2022-12-22T11:28:04.514Z,27.03
2022-12-22T11:31:06.078Z,21.40
2022-12-22T11:34:04.015Z,22.73
2022-12-22T11:36:53.078Z,27.63
2022-12-22T11:40:06.033Z,23.50
2022-12-22T11:42:33.032Z,26.43
2022-12-22T11:45:43.098Z,21.80
2022-12-22T11:48:26.046Z,23.53
2022-12-22T11:51:10.447Z,23.70
2022-12-22T11:54:10.320Z,22.97
2022-12-22T11:56:52.288Z,19.20
2022-12-22T11:59:39.557Z,25.17
2022-12-22T12:02:28.566Z,26.70
2022-12-22T12:05:07.609Z,20.13
2022-12-22T12:07:41.367Z,32.07
2022-12-22T12:10:35.779Z,31.20
2022-12-22T12:13:36.869Z,18.60
2022-12-22T12:16:26.016Z,28.60
2022-12-22T12:19:09.591Z,13.50
2022-12-22T12:21:54.543Z,27.87
2022-12-22T12:24:37.017Z,30.63
2022-12-22T12:27:25.846Z,17.20
2022-12-22T12:33:22.933Z,20.70
2022-12-22T12:36:09.475Z,12.87
2022-12-22T12:41:53.676Z,24.63
2022-12-22T12:44:26.607Z,18.20
2022-12-22T12:46:56.073Z,17.13
2022-12-22T12:49:35.405Z,23.50
2022-12-22T12:52:04.492Z,18.97
2022-12-22T12:54:48.212Z,21.07
2022-12-22T12:57:24.678Z,30.17
2022-12-22T12:59:58.899Z,26.40
2022-12-22T13:02:30.049Z,15.40
2022-12-22T13:05:11.655Z,19.07
2022-12-22T13:08:15.856Z,12.10
2022-12-22T13:10:45.266Z,25.53
2022-12-22T13:13:34.061Z,14.30
2022-12-22T13:16:01.788Z,11.77
2022-12-22T13:18:34.941Z,19.13
2022-12-22T13:21:42.600Z,23.63
2022-12-22T13:24:22.731Z,18.10
2022-12-22T13:26:44.112Z,12.57
2022-12-22T13:29:26.163Z,10.93
2022-12-22T13:32:02.180Z,16.50
2022-12-22T13:34:57.641Z,12.20
2022-12-22T13:37:29.536Z,11.37
2022-12-22T13:40:09.220Z,24.97
2022-12-22T13:42:47.387Z,16.60
2022-12-22T13:45:33.877Z,13.10
2022-12-22T13:48:06.305Z,20.97
2022-12-22T13:50:36.670Z,14.63
2022-12-22T13:53:15.384Z,15.50
2022-12-22T13:55:52.124Z,20.93
2022-12-22T13:58:27.956Z,29.93
2022-12-22T14:01:17.336Z,16.47
2022-12-22T14:04:02.498Z,28.60
2022-12-22T14:06:33.314Z,26.27
2022-12-22T14:09:20.902Z,24.03
2022-12-22T14:11:57.002Z,21.03
2022-12-22T14:14:30.164Z,29.17
2022-12-22T14:17:00.541Z,17.40
2022-12-22T14:19:34.009Z,22.33
2022-12-22T14:22:11.508Z,23.30
2022-12-22T14:24:56.055Z,19.27
2022-12-22T14:27:35.170Z,14.43
2022-12-22T14:30:05.330Z,29.60
2022-12-22T14:32:52.426Z,18.10
2022-12-22T14:35:21.468Z,18.50
2022-12-22T14:37:52.494Z,20.70
2022-12-22T14:40:33.542Z,22.73
2022-12-22T14:43:03.598Z,29.90
2022-12-22T14:45:31.158Z,19.87
2022-12-22T14:47:58.422Z,14.97
2022-12-22T14:50:28.148Z,14.80
2022-12-22T14:53:05.089Z,19.63
2022-12-22T14:55:36.789Z,14.37
2022-12-22T14:58:03.786Z,18.33
2022-12-22T15:00:37.477Z,11.90
2022-12-22T15:03:25.720Z,18.53
2022-12-22T15:05:53.359Z,14.47
2022-12-22T15:08:40.632Z,19.13
2022-12-22T15:11:13.817Z,12.43
2022-12-22T15:13:41.024Z,18.87
2022-12-22T15:16:15.641Z,18.60
2022-12-22T15:18:42.835Z,16.33
2022-12-22T15:21:13.724Z,22.57
2022-12-22T15:23:40.949Z,20.43
2022-12-22T15:26:08.768Z,9.37
2022-12-22T15:28:35.900Z,18.37
2022-12-22T15:31:05.021Z,14.10
2022-12-22T15:33:32.306Z,21.40
2022-12-22T15:35:59.412Z,13.60
2022-12-22T15:38:26.626Z,18.17
2022-12-22T15:40:53.667Z,12.50
2022-12-22T15:46:07.906Z,11.23
2022-12-22T15:48:37.345Z,22.97
2022-12-22T15:51:07.808Z,21.33
2022-12-22T15:53:35.608Z,23.07
2022-12-22T15:56:03.139Z,19.10
2022-12-22T15:58:36.433Z,12.43
2022-12-22T16:01:03.760Z,20.67
2022-12-22T16:03:30.985Z,16.30
2022-12-22T16:05:58.810Z,11.40
2022-12-22T16:08:33.251Z,22.40
2022-12-22T16:11:00.629Z,14.03
2022-12-22T16:13:28.887Z,15.67
2022-12-22T16:15:59.504Z,20.07
2022-12-22T16:18:26.867Z,16.57
2022-12-22T16:20:54.295Z,19.43
2022-12-22T16:23:27.365Z,26.67
2022-12-22T16:26:01.333Z,12.70
2022-12-22T16:28:29.204Z,19.67
2022-12-22T16:30:56.416Z,32.33
2022-12-22T16:33:23.497Z,24.60
2022-12-22T16:35:50.561Z,18.13
2022-12-22T16:38:19.169Z,14.57
2022-12-22T16:40:53.053Z,11.63
2022-12-22T16:46:18.483Z,37.90
2022-12-22T16:48:49.168Z,18.70
2022-12-22T16:51:25.312Z,23.50
2022-12-22T16:53:52.512Z,15.43
2022-12-22T16:56:28.185Z,28.33
2022-12-22T16:58:55.438Z,25.63
2022-12-22T17:01:39.209Z,16.90
2022-12-22T17:04:14.969Z,26.47
2022-12-22T17:06:42.544Z,22.03
2022-12-22T17:09:19.176Z,15.47
2022-12-22T17:11:47.239Z,14.63
2022-12-22T17:14:31.550Z,19.87
2022-12-22T17:16:59.629Z,32.43
2022-12-22T17:19:26.648Z,27.20
2022-12-22T17:21:55.265Z,33.97
2022-12-22T17:24:28.203Z,20.87
2022-12-22T17:26:59.856Z,40.90
2022-12-22T17:29:27.103Z,36.23
2022-12-22T17:31:56.656Z,17.67
2022-12-22T17:34:24.443Z,38.30
2022-12-22T17:36:51.837Z,20.73
2022-12-22T17:39:21.294Z,18.77
2022-12-22T17:41:56.767Z,18.33
2022-12-22T17:44:26.207Z,24.00
2022-12-22T17:46:53.695Z,23.87
2022-12-22T17:49:22.426Z,29.17
2022-12-22T17:51:52.310Z,36.07
2022-12-22T17:54:27.350Z,20.57
2022-12-22T17:57:00.923Z,29.37
2022-12-22T17:59:28.127Z,30.50
2022-12-22T18:01:55.395Z,18.63
2022-12-22T18:04:22.590Z,26.10
2022-12-22T18:06:49.700Z,19.23
2022-12-22T18:09:23.408Z,30.70
2022-12-22T18:11:51.360Z,22.43
2022-12-22T18:14:22.183Z,34.67
2022-12-22T18:16:49.457Z,17.50
2022-12-22T18:19:16.564Z,16.97
2022-12-22T18:21:43.964Z,21.53
2022-12-22T18:24:18.991Z,21.63
2022-12-22T18:26:47.268Z,34.63
2022-12-22T18:29:16.128Z,7.30
2022-12-22T18:31:44.529Z,26.90
2022-12-22T18:34:12.523Z,24.83
2022-12-22T18:36:42.461Z,26.50
2022-12-22T18:39:17.320Z,23.77
2022-12-22T18:41:45.138Z,24.70
2022-12-22T18:44:21.126Z,25.77
2022-12-22T18:46:48.839Z,20.33
2022-12-22T18:49:16.364Z,19.63
2022-12-22T18:51:44.853Z,29.97
2022-12-22T18:54:37.053Z,21.43
2022-12-22T18:57:05.603Z,19.03
2022-12-22T18:59:33.283Z,14.77
2022-12-22T19:02:25.559Z,8.63
2022-12-22T19:04:53.615Z,28.40
2022-12-22T19:07:23.756Z,17.27
2022-12-22T19:09:52.033Z,11.37
2022-12-22T19:12:23.245Z,20.53
2022-12-22T19:14:54.977Z,35.93
2022-12-22T19:17:26.436Z,24.03
2022-12-22T19:19:53.541Z,19.87
2022-12-22T19:22:20.834Z,34.03
2022-12-22T19:24:49.110Z,19.27
2022-12-22T19:27:21.519Z,23.13
2022-12-22T19:29:48.686Z,31.67
2022-12-22T19:32:29.067Z,14.57
2022-12-22T19:34:56.449Z,9.63
2022-12-22T19:37:23.606Z,20.67
2022-12-22T19:39:50.855Z,23.37
2022-12-22T19:42:22.494Z,20.83
2022-12-22T19:44:49.713Z,28.83
2022-12-22T19:47:21.311Z,19.17
2022-12-22T19:49:48.650Z,12.73
2022-12-22T19:52:18.144Z,18.20
2022-12-22T19:54:48.051Z,25.97
2022-12-22T19:57:22.274Z,20.57
2022-12-22T19:59:51.894Z,19.57
2022-12-22T20:02:23.996Z,26.17
2022-12-22T20:04:51.507Z,17.30
2022-12-22T20:07:20.827Z,14.90
2022-12-22T20:09:48.375Z,15.87
2022-12-22T20:12:26.978Z,12.13
2022-12-22T20:14:54.575Z,21.43
2022-12-22T20:17:21.843Z,14.10
2022-12-22T20:19:49.075Z,27.63
2022-12-22T20:22:18.760Z,17.83
2022-12-22T20:24:47.423Z,28.23
2022-12-22T20:27:41.015Z,21.20
2022-12-22T20:30:22.014Z,40.07
2022-12-22T20:32:49.349Z,19.83
2022-12-22T20:35:17.914Z,16.00
2022-12-22T20:37:45.454Z,17.80
2022-12-22T20:40:24.929Z,13.30
2022-12-22T20:42:52.349Z,11.43
2022-12-22T20:45:23.293Z,14.23
2022-12-22T20:47:51.368Z,25.10
2022-12-22T20:50:20.025Z,34.37
2022-12-22T20:52:48.108Z,15.47
2022-12-22T20:55:17.215Z,9.20
2022-12-22T20:57:45.168Z,21.07
2022-12-22T21:00:26.678Z,16.10
2022-12-22T21:02:54.501Z,8.90
2022-12-22T21:05:22.125Z,16.57
2022-12-22T21:07:49.667Z,11.73
2022-12-22T21:10:23.313Z,13.20
2022-12-22T21:12:50.738Z,19.80
2022-12-22T21:15:23.066Z,13.20
2022-12-22T21:17:57.706Z,11.33
2022-12-22T21:20:28.024Z,9.70
2022-12-22T21:22:55.188Z,16.97
2022-12-22T21:25:25.771Z,14.47
2022-12-22T21:27:53.280Z,16.77
2022-12-22T21:30:25.885Z,18.70
2022-12-22T21:32:53.179Z,28.07
2022-12-22T21:35:27.571Z,22.77
2022-12-22T21:37:57.545Z,17.70
2022-12-22T21:40:30.594Z,13.20
2022-12-22T21:42:58.274Z,17.93
2022-12-22T21:45:28.407Z,14.83
2022-12-22T21:47:56.063Z,19.63
2022-12-22T21:50:28.858Z,10.43
2022-12-22T21:52:56.367Z,27.73
2022-12-22T21:55:34.894Z,19.53
2022-12-22T21:58:03.002Z,21.10
2022-12-22T22:00:34.161Z,19.57
2022-12-22T22:03:03.266Z,19.17
2022-12-22T22:05:35.313Z,16.90
2022-12-22T22:08:04.126Z,13.00
2022-12-22T22:10:37.352Z,13.63
2022-12-22T22:13:05.304Z,15.77
2022-12-22T22:15:32.956Z,18.17
2022-12-22T22:18:06.381Z,14.07
2022-12-22T22:20:33.782Z,15.83
2022-12-22T22:23:03.618Z,12.57
2022-12-22T22:25:30.613Z,18.20
2022-12-22T22:28:00.795Z,18.60
2022-12-22T22:30:27.926Z,29.97
2022-12-22T22:32:58.762Z,13.43
2022-12-22T22:35:27.234Z,25.97
2022-12-22T22:37:55.148Z,27.63
2022-12-22T22:40:23.606Z,23.93
2022-12-22T22:42:50.826Z,14.07
2022-12-22T22:45:24.139Z,29.77
2022-12-22T22:47:52.673Z,18.57
2022-12-22T22:50:23.027Z,27.23
2022-12-22T22:52:50.479Z,25.97
2022-12-22T22:55:17.588Z,22.77
2022-12-22T22:57:44.621Z,29.10
2022-12-22T23:00:13.619Z,33.03
2022-12-22T23:02:41.042Z,16.20
2022-12-22T23:05:09.142Z,16.57
2022-12-22T23:07:39.640Z,19.93
2022-12-22T23:10:07.356Z,25.73
2022-12-22T23:12:34.425Z,32.47
2022-12-22T23:15:02.009Z,27.07
2022-12-22T23:17:29.510Z,22.13
2022-12-22T23:19:56.547Z,39.33
2022-12-22T23:22:23.834Z,25.27
2022-12-22T23:24:50.931Z,28.77
2022-12-22T23:27:17.948Z,19.33
2022-12-22T23:29:44.959Z,27.93
2022-12-22T23:32:12.065Z,28.13
2022-12-22T23:34:39.022Z,26.87
2022-12-22T23:37:06.112Z,20.73
2022-12-22T23:39:33.165Z,17.10
2022-12-22T23:42:00.221Z,19.13
2022-12-22T23:44:27.397Z,21.27
2022-12-22T23:46:54.385Z,25.30
2022-12-22T23:49:21.541Z,25.90
2022-12-22T23:51:48.608Z,33.23
2022-12-22T23:54:15.668Z,25.63
2022-12-22T23:56:42.669Z,30.30
2022-12-22T23:59:09.740Z,33.73
